SBMQ/MCP METAR and TAF weather

Enter ICAO airport designator
Station Type Date Time Source
SBMQ METAR 2020/07/03 12:00 UTC NOAA

SBMQ 031200Z 02004KT 9999 SCT015 30/28 Q1012


Station Type Date Time Source
SBMQ Decoded METAR 2020/07/03 12:00 UTC NOAA

Macapa, Brazil (SBMQ) 00-02N 050-03W
Jul 03, 2020 - 08:00 AM EDT / 2020.07.03 1200 UTC
Wind: from the NNE (020 degrees) at 5 MPH (4 KT):0
Visibility: greater than 7 mile(s):0
Sky conditions: partly cloudy
Temperature: 86 F (30 C)
Heat index: 104.7 F (40.4 C):1
Dew Point: 82 F (28 C)
Relative Humidity: 89%
Pressure (altimeter): 29.88 in. Hg (1012 hPa)
ob: SBMQ 031200Z 02004KT 9999 SCT015 30/28 Q1012
cycle: 12

Station Type Date Time Source
SBMQ TAF 2020/07/03 12:50 UTC NOAA

TAF SBMQ 030900Z 0312/0412 06008KT 9999 SCT020 TX31/0316Z TN24/0408Z
BECMG 0322/0324 SCT020 FEW025TCU
BECMG 0400/0402 03008KT SCT015
BECMG 0404/0406 00000KT BKN010
BECMG 0408/0410 SCT020
RMK PFF

Example: see airport list